Time;durP1;ratioP1;P1;durP2;ratioP2;P2;SDS_P1;SDS_P2;PMS_P1;PMS_P2;Temp;Humidity;BMP_temperature;BMP_pressure;BME280_temperature;BME280_humidity;BME280_pressure;Samples;Min_cycle;Max_cycle;Signal;HPM_P1;HPM_P2
2022/10/24 00:00:44;;;;;;;;;;;15.50;99.90;;;;;;6311623;22;20315;-64
2022/10/24 00:03:10;;;;;;;;;;;15.50;99.90;;;;;;6339651;22;19925;-64
2022/10/24 00:05:36;;;;;;;;;;;15.50;99.90;;;;;;6339716;22;19946;-64
2022/10/24 00:08:02;;;;;;;;;;;15.40;99.90;;;;;;6311643;22;20280;-64
2022/10/24 00:10:28;;;;;;;;;;;15.40;99.90;;;;;;6339437;22;19945;-65
2022/10/24 00:12:54;;;;;;;;;;;15.30;99.90;;;;;;6339680;22;19919;-72
2022/10/24 00:15:20;;;;;;;;;;;15.10;99.90;;;;;;6337382;22;19915;-71
2022/10/24 00:17:45;;;;;;;;;;;15.30;99.90;;;;;;6339681;22;19921;-73
2022/10/24 00:20:11;;;;;;;;;;;15.30;99.90;;;;;;6339406;22;20311;-72
2022/10/24 00:22:37;;;;;;;;;;;15.20;99.90;;;;;;6340804;22;19918;-73
2022/10/24 00:25:02;;;;;;;;;;;15.20;99.90;;;;;;6313650;22;19946;-73
2022/10/24 00:27:28;;;;;;;;;;;15.10;99.90;;;;;;6341028;22;19918;-72
2022/10/24 00:29:53;;;;;;;;;;;15.10;99.90;;;;;;6341536;22;19939;-72
2022/10/24 00:32:19;;;;;;;;;;;15.10;99.90;;;;;;6341546;22;20285;-73
2022/10/24 00:34:48;;;;;;;;;;;15.10;99.90;;;;;;6341517;22;19918;-71
2022/10/24 00:37:15;;;;;;;;;;;15.10;99.90;;;;;;6341414;22;19922;-71
2022/10/24 00:39:41;;;;;;;;;;;15.00;99.90;;;;;;6340913;22;19915;-73
2022/10/24 00:42:07;;;;;;;;;;;15.00;99.90;;;;;;6340887;22;19929;-72
2022/10/24 00:44:36;;;;;;;;;;;14.90;99.90;;;;;;6341261;22;19921;-72
2022/10/24 00:47:07;;;;;;;;;;;14.90;99.90;;;;;;6313405;22;19914;-72
2022/10/24 00:49:42;;;;;;;;;;;14.80;99.90;;;;;;6341230;22;19915;-73
2022/10/24 00:52:13;;;;;;;;;;;14.80;99.90;;;;;;6340784;22;20323;-64
2022/10/24 00:54:40;;;;;;;;;;;14.80;99.90;;;;;;6341230;22;19964;-64
2022/10/24 00:57:05;;;;;;;;;;;14.70;99.90;;;;;;6340770;22;20268;-64
2022/10/24 00:59:33;;;;;;;;;;;14.80;99.90;;;;;;6340662;22;19994;-64
2022/10/24 01:01:59;;;;;;;;;;;14.70;99.90;;;;;;6313321;22;19919;-64
2022/10/24 01:04:25;;;;;;;;;;;14.70;99.90;;;;;;6313668;22;20020;-64
2022/10/24 01:07:00;;;;;;;;;;;14.80;99.90;;;;;;6341021;22;20238;-64
2022/10/24 01:09:42;;;;;;;;;;;14.80;99.90;;;;;;6341440;22;19915;-64
2022/10/24 01:12:22;;;;;;;;;;;14.80;99.90;;;;;;6340259;22;19921;-64
2022/10/24 01:14:49;;;;;;;;;;;14.80;99.90;;;;;;6341076;22;20083;-64
2022/10/24 01:17:24;;;;;;;;;;;14.90;99.90;;;;;;6340971;22;19919;-64
2022/10/24 01:20:01;;;;;;;;;;;14.90;99.90;;;;;;6340531;22;19919;-64
2022/10/24 01:22:41;;;;;;;;;;;15.00;99.90;;;;;;6313147;22;19997;-65
2022/10/24 01:25:14;;;;;;;;;;;15.00;99.90;;;;;;6341048;22;20294;-64
2022/10/24 01:27:51;;;;;;;;;;;15.00;99.90;;;;;;6340388;22;20383;-64
2022/10/24 01:30:18;;;;;;;;;;;15.10;99.90;;;;;;6340502;22;19994;-64
2022/10/24 01:32:55;;;;;;;;;;;15.10;99.90;;;;;;6312779;22;19922;-64
2022/10/24 01:35:34;;;;;;;;;;;15.10;99.90;;;;;;6340895;22;20319;-65
2022/10/24 01:38:03;;;;;;;;;;;15.10;99.90;;;;;;6340970;22;19972;-64
2022/10/24 01:40:33;;;;;;;;;;;15.10;99.90;;;;;;6340722;22;19933;-64
2022/10/24 01:43:06;;;;;;;;;;;15.00;99.90;;;;;;6341164;22;20286;-73
2022/10/24 01:45:34;;;;;;;;;;;15.00;99.90;;;;;;6340782;22;19985;-72
2022/10/24 01:48:02;;;;;;;;;;;14.90;99.90;;;;;;6340848;22;19990;-72
2022/10/24 01:50:28;;;;;;;;;;;14.90;99.90;;;;;;6340498;22;19972;-72
2022/10/24 01:52:55;;;;;;;;;;;14.90;99.90;;;;;;6339495;22;19942;-72
2022/10/24 01:55:22;;;;;;;;;;;14.90;99.90;;;;;;6312779;22;19915;-73
2022/10/24 01:57:48;;;;;;;;;;;14.80;99.90;;;;;;6340624;22;19933;-73
2022/10/24 02:00:18;;;;;;;;;;;14.80;99.90;;;;;;6340294;22;19969;-73
2022/10/24 02:02:46;;;;;;;;;;;14.70;99.90;;;;;;6340650;22;19918;-73
2022/10/24 02:05:20;;;;;;;;;;;14.70;99.90;;;;;;6340576;22;19915;-72
2022/10/24 02:07:51;;;;;;;;;;;14.70;99.90;;;;;;6338197;22;19921;-73
2022/10/24 02:10:37;;;;;;;;;;;14.70;99.90;;;;;;6340469;22;19914;-73
2022/10/24 02:13:10;;;;;;;;;;;14.70;99.90;;;;;;6340053;22;19972;-73
2022/10/24 02:15:39;;;;;;;;;;;14.70;99.90;;;;;;6312612;22;19921;-73
2022/10/24 02:18:08;;;;;;;;;;;14.70;99.90;;;;;;6340548;22;19922;-72
2022/10/24 02:20:36;;;;;;;;;;;14.60;99.90;;;;;;6340432;22;19914;-64
2022/10/24 02:23:09;;;;;;;;;;;14.60;99.90;;;;;;6340054;22;19961;-64
2022/10/24 02:25:36;;;;;;;;;;;14.60;99.90;;;;;;6340469;22;19918;-64
2022/10/24 02:28:04;;;;;;;;;;;14.60;99.90;;;;;;6340396;22;19964;-64
2022/10/24 02:30:32;;;;;;;;;;;14.60;99.90;;;;;;6340450;22;19915;-64
2022/10/24 02:32:58;;;;;;;;;;;14.50;99.90;;;;;;6340457;22;19915;-64
2022/10/24 02:35:27;;;;;;;;;;;14.50;99.90;;;;;;6312636;22;20374;-64
2022/10/24 02:37:54;;;;;;;;;;;14.50;99.90;;;;;;6340380;22;19914;-64
2022/10/24 02:40:22;;;;;;;;;;;14.50;99.90;;;;;;6339763;22;20309;-64
2022/10/24 02:42:51;;;;;;;;;;;14.50;99.90;;;;;;6340295;22;19923;-64
2022/10/24 02:45:19;;;;;;;;;;;14.40;99.90;;;;;;6337935;22;19914;-64
2022/10/24 02:47:51;;;;;;;;;;;14.50;99.90;;;;;;6340401;22;20251;-64
2022/10/24 02:50:17;;;;;;;;;;;14.40;99.90;;;;;;6312259;22;19915;-73
2022/10/24 02:52:42;;;;;;;;;;;14.40;99.90;;;;;;6340224;22;19922;-73
2022/10/24 02:55:10;;;;;;;;;;;14.40;99.90;;;;;;6340094;22;19919;-73
2022/10/24 02:57:36;;;;;;;;;;;14.40;99.90;;;;;;6338182;22;19922;-73
2022/10/24 03:00:01;;;;;;;;;;;14.40;99.90;;;;;;6339690;22;19915;-72
2022/10/24 03:02:27;;;;;;;;;;;14.30;99.90;;;;;;6339776;22;19926;-73
2022/10/24 03:04:52;;;;;;;;;;;14.30;99.90;;;;;;6340120;22;19922;-73
2022/10/24 03:07:18;;;;;;;;;;;14.30;99.90;;;;;;6340175;22;19918;-72
2022/10/24 03:09:43;;;;;;;;;;;14.30;99.90;;;;;;6340022;22;20000;-72
2022/10/24 03:12:12;;;;;;;;;;;14.30;99.90;;;;;;6311923;22;19922;-74
2022/10/24 03:14:38;;;;;;;;;;;14.30;99.90;;;;;;6339673;22;19941;-74
2022/10/24 03:17:07;;;;;;;;;;;14.30;99.90;;;;;;6339974;22;19939;-73
2022/10/24 03:19:32;;;;;;;;;;;14.20;99.90;;;;;;6340004;22;19921;-73
2022/10/24 03:21:58;;;;;;;;;;;14.20;99.90;;;;;;6338400;22;20327;-73
2022/10/24 03:24:24;;;;;;;;;;;14.30;99.90;;;;;;6339563;22;20005;-74
2022/10/24 03:26:53;;;;;;;;;;;14.20;99.90;;;;;;6339871;22;19922;-73
2022/10/24 03:29:18;;;;;;;;;;;14.20;99.90;;;;;;6339620;22;19918;-73
2022/10/24 03:31:45;;;;;;;;;;;14.20;99.90;;;;;;6340241;22;19956;-72
2022/10/24 03:34:14;;;;;;;;;;;14.20;99.90;;;;;;6311930;22;19915;-73
2022/10/24 03:36:39;;;;;;;;;;;14.30;99.90;;;;;;6337709;22;19915;-72
2022/10/24 03:39:05;;;;;;;;;;;14.30;99.90;;;;;;6339743;22;19937;-73
2022/10/24 03:41:35;;;;;;;;;;;14.40;99.90;;;;;;6339793;22;19915;-73
2022/10/24 03:44:01;;;;;;;;;;;14.40;99.90;;;;;;6286091;22;19919;-72
2022/10/24 03:46:27;;;;;;;;;;;14.50;99.90;;;;;;6339396;22;20373;-73
2022/10/24 03:48:56;;;;;;;;;;;14.70;99.90;;;;;;6337890;22;20323;-72
2022/10/24 03:51:21;;;;;;;;;;;14.80;99.90;;;;;;6339736;22;19922;-73
2022/10/24 03:53:49;;;;;;;;;;;14.90;99.90;;;;;;6339100;22;20240;-73
2022/10/24 03:56:16;;;;;;;;;;;15.00;99.90;;;;;;6339328;22;19914;-73
2022/10/24 03:58:43;;;;;;;;;;;15.00;99.90;;;;;;6339206;22;19914;-73
2022/10/24 04:01:15;;;;;;;;;;;15.10;99.90;;;;;;6339647;22;19922;-72
2022/10/24 04:03:41;;;;;;;;;;;15.10;99.90;;;;;;6339290;22;20398;-72
2022/10/24 04:06:06;;;;;;;;;;;15.10;99.90;;;;;;6339433;22;19965;-72
2022/10/24 04:08:32;;;;;;;;;;;15.20;99.90;;;;;;6339565;22;19994;-72
2022/10/24 04:10:59;;;;;;;;;;;15.30;99.90;;;;;;6339166;22;19982;-73
2022/10/24 04:13:25;;;;;;;;;;;15.30;99.90;;;;;;6311734;22;20274;-73
2022/10/24 04:15:52;;;;;;;;;;;15.30;99.90;;;;;;6339213;22;19929;-73
2022/10/24 04:18:19;;;;;;;;;;;15.30;99.90;;;;;;6339355;22;20011;-73
2022/10/24 04:20:45;;;;;;;;;;;15.20;99.90;;;;;;6339178;22;19968;-73
2022/10/24 04:23:11;;;;;;;;;;;15.30;99.90;;;;;;6310878;22;19919;-74
2022/10/24 04:25:40;;;;;;;;;;;15.30;99.90;;;;;;6311327;22;20053;-74
2022/10/24 04:28:17;;;;;;;;;;;15.40;99.90;;;;;;6339203;22;19914;-74
2022/10/24 04:30:43;;;;;;;;;;;15.30;99.90;;;;;;6338240;22;19953;-72
2022/10/24 04:33:09;;;;;;;;;;;15.20;99.90;;;;;;6337060;22;20357;-72
2022/10/24 04:35:45;;;;;;;;;;;15.20;99.90;;;;;;6336746;22;20394;-72
2022/10/24 04:38:11;;;;;;;;;;;15.20;99.90;;;;;;6336931;22;19915;-72
2022/10/24 04:40:36;;;;;;;;;;;15.20;99.90;;;;;;6336730;22;19915;-73
2022/10/24 04:43:02;;;;;;;;;;;15.10;99.90;;;;;;6309057;22;19968;-73
2022/10/24 04:45:27;;;;;;;;;;;15.10;99.90;;;;;;6337472;22;19919;-74
2022/10/24 04:47:58;;;;;;;;;;;15.00;99.90;;;;;;6339343;22;19921;-72
2022/10/24 04:50:23;;;;;;;;;;;15.00;99.90;;;;;;6339389;22;19921;-73
2022/10/24 04:52:56;;;;;;;;;;;15.00;99.90;;;;;;6337332;22;19922;-73
2022/10/24 04:55:28;;;;;;;;;;;14.90;99.90;;;;;;6339460;22;19919;-74
2022/10/24 04:57:54;;;;;;;;;;;14.90;99.90;;;;;;6337893;22;19937;-64
2022/10/24 05:00:19;;;;;;;;;;;14.90;99.90;;;;;;6339283;22;19915;-64
2022/10/24 05:02:45;;;;;;;;;;;14.90;99.90;;;;;;6339581;22;19942;-64
2022/10/24 05:05:10;;;;;;;;;;;14.90;99.90;;;;;;6339257;22;20232;-64
2022/10/24 05:07:39;;;;;;;;;;;14.90;99.90;;;;;;6339643;22;20242;-64
2022/10/24 05:10:05;;;;;;;;;;;14.90;99.90;;;;;;6339592;22;19914;-64
2022/10/24 05:12:32;;;;;;;;;;;14.80;99.90;;;;;;6340598;22;20335;-64
2022/10/24 05:14:58;;;;;;;;;;;14.90;99.90;;;;;;6340532;22;19923;-64
2022/10/24 05:17:23;;;;;;;;;;;14.80;99.90;;;;;;6313624;22;19921;-64
2022/10/24 05:19:49;;;;;;;;;;;14.80;99.90;;;;;;6340411;22;19994;-64
2022/10/24 05:22:20;;;;;;;;;;;14.80;99.90;;;;;;6340977;22;19923;-64
2022/10/24 05:24:45;;;;;;;;;;;14.80;99.90;;;;;;6340567;22;19989;-65
2022/10/24 05:27:11;;;;;;;;;;;14.70;99.90;;;;;;6313422;22;19957;-64
2022/10/24 05:29:39;;;;;;;;;;;14.70;99.90;;;;;;6340811;22;19953;-64
2022/10/24 05:32:05;;;;;;;;;;;14.80;99.90;;;;;;6313573;22;19938;-64
2022/10/24 05:34:31;;;;;;;;;;;14.80;99.90;;;;;;6312941;22;19922;-73
2022/10/24 05:36:57;;;;;;;;;;;14.80;99.90;;;;;;6340756;22;20208;-72
2022/10/24 05:39:22;;;;;;;;;;;14.70;99.90;;;;;;6340637;22;19922;-73
2022/10/24 05:41:48;;;;;;;;;;;14.70;99.90;;;;;;6340438;22;19918;-72
2022/10/24 05:44:14;;;;;;;;;;;14.70;99.90;;;;;;6338440;22;19918;-72
2022/10/24 05:46:43;;;;;;;;;;;14.70;99.90;;;;;;6340625;22;19915;-73
2022/10/24 05:49:08;;;;;;;;;;;14.80;99.90;;;;;;6340366;22;20003;-71
2022/10/24 05:51:35;;;;;;;;;;;14.70;99.90;;;;;;6340558;22;19918;-73
2022/10/24 05:54:00;;;;;;;;;;;14.70;99.90;;;;;;6312570;22;19914;-63
2022/10/24 05:56:26;;;;;;;;;;;14.70;99.90;;;;;;6340091;22;20375;-72
2022/10/24 05:58:53;;;;;;;;;;;14.70;99.90;;;;;;6340531;22;19922;-72
2022/10/24 06:01:18;;;;;;;;;;;14.70;99.90;;;;;;6340188;22;20289;-73
2022/10/24 06:03:45;;;;;;;;;;;14.70;99.90;;;;;;6340494;22;19946;-73
2022/10/24 06:06:10;;;;;;;;;;;14.70;99.90;;;;;;6338920;22;19914;-73
2022/10/24 06:08:36;;;;;;;;;;;14.70;99.90;;;;;;6340469;22;20359;-72
2022/10/24 06:11:07;;;;;;;;;;;14.70;99.90;;;;;;6340240;22;19922;-72
2022/10/24 06:13:33;;;;;;;;;;;14.70;99.90;;;;;;6312724;22;19918;-73
2022/10/24 06:15:58;;;;;;;;;;;14.70;99.90;;;;;;6338838;22;19915;-73
2022/10/24 06:18:27;;;;;;;;;;;14.80;99.90;;;;;;6340418;22;20242;-73
2022/10/24 06:20:54;;;;;;;;;;;14.80;99.90;;;;;;6340358;22;19915;-64
2022/10/24 06:23:20;;;;;;;;;;;14.80;99.90;;;;;;6312340;22;19924;-63
2022/10/24 06:25:45;;;;;;;;;;;14.80;99.90;;;;;;6312366;22;19946;-63
2022/10/24 06:28:13;;;;;;;;;;;14.80;99.90;;;;;;6340128;22;19914;-63
2022/10/24 06:30:39;;;;;;;;;;;14.90;99.90;;;;;;6340259;22;19967;-63
2022/10/24 06:33:05;;;;;;;;;;;14.90;99.90;;;;;;6339925;22;19975;-63
2022/10/24 06:35:31;;;;;;;;;;;14.90;99.90;;;;;;6339809;22;19954;-64
2022/10/24 06:37:56;;;;;;;;;;;15.00;99.90;;;;;;6339924;22;19921;-64
2022/10/24 06:40:22;;;;;;;;;;;15.00;99.90;;;;;;6339873;22;19915;-63
2022/10/24 06:42:48;;;;;;;;;;;15.00;99.90;;;;;;6339860;22;19923;-63
2022/10/24 06:45:13;;;;;;;;;;;15.00;99.90;;;;;;6340305;22;20277;-63
2022/10/24 06:47:39;;;;;;;;;;;15.00;99.90;;;;;;6340007;22;19921;-64
2022/10/24 06:50:05;;;;;;;;;;;15.00;99.90;;;;;;6340190;22;20310;-63
2022/10/24 06:52:32;;;;;;;;;;;15.00;99.90;;;;;;6339857;22;19915;-64
2022/10/24 06:54:58;;;;;;;;;;;15.00;99.90;;;;;;6340226;22;20200;-64
2022/10/24 06:57:25;;;;;;;;;;;15.10;99.90;;;;;;6340272;22;19961;-63
2022/10/24 06:59:52;;;;;;;;;;;15.10;99.90;;;;;;6339023;22;20291;-63
2022/10/24 07:02:19;;;;;;;;;;;15.20;99.90;;;;;;6340112;22;19918;-63
2022/10/24 07:04:45;;;;;;;;;;;15.20;99.90;;;;;;6339819;22;20243;-64
2022/10/24 07:07:15;;;;;;;;;;;15.20;99.90;;;;;;6338033;22;19914;-64
2022/10/24 07:09:40;;;;;;;;;;;15.20;99.90;;;;;;6340190;22;19914;-64
2022/10/24 07:12:06;;;;;;;;;;;15.30;99.90;;;;;;6309034;22;19914;-64
2022/10/24 07:14:33;;;;;;;;;;;15.30;99.90;;;;;;6338811;22;19926;-64
2022/10/24 07:17:02;;;;;;;;;;;15.30;99.90;;;;;;6338246;22;19954;-64
2022/10/24 07:19:28;;;;;;;;;;;15.30;99.90;;;;;;6338851;22;19954;-64
2022/10/24 07:21:54;;;;;;;;;;;15.30;99.90;;;;;;6338159;22;19914;-72
2022/10/24 07:24:21;;;;;;;;;;;15.30;99.90;;;;;;6338374;22;20342;-72
2022/10/24 07:26:47;;;;;;;;;;;15.30;99.90;;;;;;6338453;22;19921;-72
2022/10/24 07:29:12;;;;;;;;;;;15.30;99.90;;;;;;6338928;22;19918;-72
2022/10/24 07:31:38;;;;;;;;;;;15.30;99.90;;;;;;6339175;22;19989;-71
2022/10/24 07:34:06;;;;;;;;;;;15.40;99.90;;;;;;6311562;22;19960;-73
2022/10/24 07:36:32;;;;;;;;;;;15.50;99.90;;;;;;6339808;22;19933;-73
2022/10/24 07:38:58;;;;;;;;;;;15.50;99.90;;;;;;6339801;22;19922;-72
2022/10/24 07:41:24;;;;;;;;;;;15.60;99.90;;;;;;6339711;22;19916;-72
2022/10/24 07:43:51;;;;;;;;;;;15.70;99.90;;;;;;6339733;22;19933;-72
2022/10/24 07:46:17;;;;;;;;;;;15.80;99.90;;;;;;6339841;22;19952;-72
2022/10/24 07:48:43;;;;;;;;;;;15.90;99.90;;;;;;6339797;22;20298;-72
2022/10/24 07:51:09;;;;;;;;;;;16.00;99.90;;;;;;6339641;22;19957;-73
2022/10/24 07:53:35;;;;;;;;;;;16.10;99.90;;;;;;6339700;22;19922;-72
2022/10/24 07:56:01;;;;;;;;;;;16.10;99.90;;;;;;6339368;22;19915;-72
2022/10/24 07:58:28;;;;;;;;;;;16.20;99.90;;;;;;6339738;22;19990;-73
2022/10/24 08:00:54;;;;;;;;;;;16.20;99.90;;;;;;6311560;22;19922;-72
2022/10/24 08:03:22;;;;;;;;;;;16.10;99.90;;;;;;6339669;22;20247;-73
2022/10/24 08:05:47;;;;;;;;;;;16.10;99.90;;;;;;6339132;22;20219;-73
2022/10/24 08:08:13;;;;;;;;;;;16.10;99.90;;;;;;6339484;22;19937;-73
2022/10/24 08:10:59;;;;;;;;;;;16.20;99.90;;;;;;6339227;22;19968;-73
2022/10/24 08:13:25;;;;;;;;;;;16.20;99.90;;;;;;6312142;22;19919;-73
2022/10/24 08:15:50;;;;;;;;;;;16.30;99.90;;;;;;6339658;22;19922;-74
2022/10/24 08:18:16;;;;;;;;;;;16.20;99.90;;;;;;6311495;22;19914;-72
2022/10/24 08:20:42;;;;;;;;;;;16.30;99.90;;;;;;6339163;22;20353;-72
2022/10/24 08:23:07;;;;;;;;;;;16.30;99.90;;;;;;6339294;22;19925;-72
2022/10/24 08:25:33;;;;;;;;;;;16.20;99.90;;;;;;6339676;22;19915;-73
2022/10/24 08:27:59;;;;;;;;;;;16.20;99.90;;;;;;6339060;22;20005;-64
2022/10/24 08:30:33;;;;;;;;;;;16.30;99.90;;;;;;6339513;22;19921;-64
2022/10/24 08:33:03;;;;;;;;;;;16.30;99.90;;;;;;6339637;22;19915;-63
2022/10/24 08:35:28;;;;;;;;;;;16.30;99.90;;;;;;6310910;22;20366;-64
2022/10/24 08:38:00;;;;;;;;;;;16.50;99.90;;;;;;6339443;22;19981;-64
2022/10/24 08:40:26;;;;;;;;;;;16.40;99.90;;;;;;6338993;22;20319;-72
2022/10/24 08:42:54;;;;;;;;;;;16.90;99.90;;;;;;6340003;22;19918;-73
2022/10/24 08:45:28;;;;;;;;;;;17.70;99.90;;;;;;6339994;22;19914;-73
2022/10/24 08:48:07;;;;;;;;;;;18.60;99.90;;;;;;6341441;22;19915;-72
2022/10/24 08:50:33;;;;;;;;;;;19.10;99.90;;;;;;6339636;22;19914;-72
2022/10/24 08:53:10;;;;;;;;;;;19.00;99.90;;;;;;6340785;22;20398;-72
2022/10/24 08:55:38;;;;;;;;;;;18.60;99.90;;;;;;6341194;22;19977;-73
2022/10/24 08:58:04;;;;;;;;;;;18.30;99.90;;;;;;6339076;22;19914;-73
2022/10/24 09:00:33;;;;;;;;;;;18.40;99.90;;;;;;6341094;22;19915;-71
2022/10/24 09:03:05;;;;;;;;;;;18.50;99.90;;;;;;6339312;22;20347;-73
2022/10/24 09:05:36;;;;;;;;;;;18.50;99.90;;;;;;6341109;22;19915;-73
2022/10/24 09:08:09;;;;;;;;;;;18.40;99.90;;;;;;6341100;22;19993;-71
2022/10/24 09:10:34;;;;;;;;;;;18.30;99.90;;;;;;6341135;22;19949;-72
2022/10/24 09:13:00;;;;;;;;;;;18.40;99.90;;;;;;6340508;22;19914;-73
2022/10/24 09:15:29;;;;;;;;;;;18.40;99.90;;;;;;6340745;22;19925;-75
2022/10/24 09:17:56;;;;;;;;;;;18.30;99.90;;;;;;6313046;22;19921;-74
2022/10/24 09:20:22;;;;;;;;;;;18.10;99.90;;;;;;6340607;22;19964;-73
2022/10/24 09:22:48;;;;;;;;;;;18.00;99.90;;;;;;6340946;22;19919;-72
2022/10/24 09:25:20;;;;;;;;;;;17.80;99.90;;;;;;6341154;22;20324;-73
2022/10/24 09:27:45;;;;;;;;;;;17.80;99.90;;;;;;6313201;22;19914;-72
2022/10/24 09:30:17;;;;;;;;;;;17.90;99.90;;;;;;6313685;22;19922;-71
2022/10/24 09:32:43;;;;;;;;;;;18.00;99.90;;;;;;6312875;22;19953;-72
2022/10/24 09:35:14;;;;;;;;;;;17.90;99.90;;;;;;6340668;22;19919;-71
2022/10/24 09:37:41;;;;;;;;;;;17.90;99.90;;;;;;6341015;22;19915;-71
2022/10/24 09:40:18;;;;;;;;;;;17.80;99.90;;;;;;6312931;22;20341;-73
2022/10/24 09:42:55;;;;;;;;;;;17.90;99.90;;;;;;6340382;22;19925;-73
2022/10/24 09:45:36;;;;;;;;;;;17.80;99.90;;;;;;6340767;22;20216;-71
2022/10/24 09:48:05;;;;;;;;;;;17.80;99.90;;;;;;6340695;22;19950;-72
2022/10/24 09:50:33;;;;;;;;;;;17.80;99.90;;;;;;6340660;22;19914;-71
2022/10/24 09:53:00;;;;;;;;;;;17.80;99.90;;;;;;6340098;22;19919;-72
2022/10/24 09:55:30;;;;;;;;;;;17.70;99.90;;;;;;6340560;22;19914;-72
2022/10/24 09:57:59;;;;;;;;;;;17.70;99.90;;;;;;6313287;22;19998;-74
2022/10/24 10:00:27;;;;;;;;;;;17.70;99.90;;;;;;6340540;22;19922;-73
2022/10/24 10:03:01;;;;;;;;;;;17.70;99.90;;;;;;6340621;22;19924;-73
2022/10/24 10:05:29;;;;;;;;;;;17.60;99.90;;;;;;6340019;22;19915;-73
2022/10/24 10:07:54;;;;;;;;;;;17.50;99.90;;;;;;6340089;22;19914;-72
2022/10/24 10:10:20;;;;;;;;;;;17.30;99.90;;;;;;6340174;22;19914;-72
2022/10/24 10:13:23;;;;;;;;;;;17.30;99.90;;;;;;6340047;22;19915;-72
2022/10/24 10:15:51;;;;;;;;;;;17.40;99.90;;;;;;6184323;23;19924;-72
2022/10/24 10:18:24;;;;;;;;;;;17.30;99.90;;;;;;6159377;23;19983;-72
2022/10/24 10:20:58;;;;;;;;;;;17.20;99.90;;;;;;6184279;23;19916;-73
2022/10/24 10:23:30;;;;;;;;;;;17.20;99.90;;;;;;6184306;23;19924;-71
2022/10/24 10:26:10;;;;;;;;;;;17.10;99.90;;;;;;6184204;23;19916;-72
2022/10/24 10:28:40;;;;;;;;;;;17.00;99.90;;;;;;6184260;23;19916;-71
2022/10/24 10:31:07;;;;;;;;;;;16.90;99.90;;;;;;6184191;23;19916;-71
2022/10/24 10:33:55;;;;;;;;;;;16.80;99.90;;;;;;6181302;23;19923;-71
2022/10/24 10:36:30;;;;;;;;;;;16.70;99.90;;;;;;6182879;23;19936;-72
2022/10/24 10:39:02;;;;;;;;;;;16.50;99.90;;;;;;6182755;23;20324;-72
2022/10/24 10:41:30;;;;;;;;;;;16.40;99.90;;;;;;6182899;23;20262;-73
2022/10/24 10:43:58;;;;;;;;;;;16.30;99.90;;;;;;6182489;23;19999;-72
2022/10/24 10:46:33;;;;;;;;;;;16.20;99.90;;;;;;6183128;23;20350;-72
2022/10/24 10:49:02;;;;;;;;;;;16.10;99.90;;;;;;6211482;22;19915;-72
2022/10/24 10:51:47;;;;;;;;;;;16.00;99.90;;;;;;6338993;22;19986;-71
2022/10/24 10:54:19;;;;;;;;;;;16.00;99.90;;;;;;6311623;22;20017;-71
2022/10/24 10:56:50;;;;;;;;;;;16.00;99.90;;;;;;6338599;22;19919;-71
2022/10/24 10:59:26;;;;;;;;;;;16.00;99.90;;;;;;6285399;22;19918;-71
2022/10/24 11:02:07;;;;;;;;;;;16.10;99.90;;;;;;6310844;22;19946;-72
2022/10/24 11:04:37;;;;;;;;;;;16.20;99.90;;;;;;6340058;22;19969;-72
2022/10/24 11:07:12;;;;;;;;;;;16.40;99.90;;;;;;6339467;22;19989;-72
2022/10/24 11:09:45;;;;;;;;;;;16.50;99.90;;;;;;6339948;22;19918;-71
2022/10/24 11:12:17;;;;;;;;;;;16.60;99.90;;;;;;6339312;22;19921;-73
2022/10/24 11:14:52;;;;;;;;;;;16.70;99.90;;;;;;6309991;22;20324;-72
2022/10/24 11:17:46;;;;;;;;;;;16.80;99.90;;;;;;6337614;22;19921;-71
2022/10/24 11:20:20;;;;;;;;;;;16.90;99.90;;;;;;6279491;22;19914;-72
2022/10/24 11:23:06;;;;;;;;;;;16.90;99.90;;;;;;6337738;22;19948;-73
2022/10/24 11:25:43;;;;;;;;;;;17.00;99.90;;;;;;6338718;22;19921;-73
2022/10/24 11:28:17;;;;;;;;;;;17.20;99.90;;;;;;6340002;22;19921;-73
2022/10/24 11:30:50;;;;;;;;;;;17.30;99.90;;;;;;6311868;22;19960;-72
2022/10/24 11:33:22;;;;;;;;;;;17.40;99.90;;;;;;6338699;22;19915;-73
2022/10/24 11:36:08;;;;;;;;;;;17.40;99.90;;;;;;6339111;22;19914;-72
2022/10/24 11:38:37;;;;;;;;;;;17.50;99.90;;;;;;6339081;22;20228;-73
2022/10/24 11:41:16;;;;;;;;;;;17.60;99.90;;;;;;6339032;22;20004;-75
2022/10/24 11:43:43;;;;;;;;;;;17.70;99.90;;;;;;6311458;22;19982;-73
2022/10/24 11:46:19;;;;;;;;;;;17.80;99.90;;;;;;6339144;22;20335;-74
2022/10/24 11:48:52;;;;;;;;;;;18.00;99.90;;;;;;6339388;22;19914;-73
2022/10/24 11:51:27;;;;;;;;;;;18.10;99.90;;;;;;6339898;22;19914;-73
2022/10/24 11:54:01;;;;;;;;;;;18.00;99.90;;;;;;6339173;22;19957;-72
2022/10/24 11:56:36;;;;;;;;;;;18.00;99.90;;;;;;6311764;22;20331;-75
2022/10/24 11:59:05;;;;;;;;;;;18.00;99.90;;;;;;6339365;22;20383;-74
2022/10/24 12:01:57;;;;;;;;;;;17.90;99.90;;;;;;6339582;22;20040;-72
2022/10/24 12:04:22;;;;;;;;;;;17.90;99.90;;;;;;6338543;22;19926;-75
2022/10/24 12:07:00;;;;;;;;;;;17.90;99.90;;;;;;6338419;22;19922;-73
2022/10/24 12:09:44;;;;;;;;;;;17.80;99.90;;;;;;6310971;22;19922;-72
2022/10/24 12:12:30;;;;;;;;;;;17.70;99.90;;;;;;6337829;22;19985;-71
2022/10/24 12:15:10;;;;;;;;;;;17.70;99.90;;;;;;6338280;22;19918;-74
2022/10/24 12:17:46;;;;;;;;;;;17.70;99.90;;;;;;6312729;22;19921;-73
2022/10/24 12:20:13;;;;;;;;;;;17.70;99.90;;;;;;6292990;22;20012;-73
2022/10/24 12:22:41;;;;;;;;;;;17.70;99.90;;;;;;6339537;22;19919;-73
2022/10/24 12:25:15;;;;;;;;;;;17.60;99.90;;;;;;6312389;22;20268;-73
2022/10/24 12:27:41;;;;;;;;;;;17.60;99.90;;;;;;6312280;22;20334;-73
2022/10/24 12:30:18;;;;;;;;;;;17.60;99.90;;;;;;6339430;22;19918;-72
2022/10/24 12:32:48;;;;;;;;;;;17.50;99.90;;;;;;6340363;22;19921;-72
2022/10/24 12:35:43;;;;;;;;;;;17.50;99.90;;;;;;6340287;22;20006;-72
2022/10/24 12:38:27;;;;;;;;;;;17.50;99.90;;;;;;6321451;22;19922;-72
2022/10/24 12:40:56;;;;;;;;;;;17.40;99.90;;;;;;6339287;22;20328;-72
2022/10/24 12:43:30;;;;;;;;;;;17.40;99.90;;;;;;6339778;22;19993;-73
2022/10/24 12:46:00;;;;;;;;;;;17.40;99.90;;;;;;6336533;22;19915;-71
2022/10/24 12:48:30;;;;;;;;;;;17.30;99.90;;;;;;6286002;22;19914;-73
2022/10/24 12:51:01;;;;;;;;;;;17.30;99.90;;;;;;6339496;22;20436;-70
2022/10/24 12:53:30;;;;;;;;;;;17.30;99.90;;;;;;6339470;22;19914;-72
2022/10/24 12:56:13;;;;;;;;;;;17.30;99.90;;;;;;6339669;22;20065;-72
2022/10/24 12:58:41;;;;;;;;;;;17.30;99.90;;;;;;6339752;22;19972;-72
2022/10/24 13:01:21;;;;;;;;;;;17.40;99.90;;;;;;6340978;22;19914;-73
2022/10/24 13:04:12;;;;;;;;;;;17.50;99.90;;;;;;6341045;22;19919;-73
2022/10/24 13:06:43;;;;;;;;;;;17.50;99.90;;;;;;6340884;22;19915;-72
2022/10/24 13:09:33;;;;;;;;;;;17.60;99.90;;;;;;6340623;22;19915;-71
2022/10/24 13:12:22;;;;;;;;;;;17.50;99.90;;;;;;6305915;22;19922;-73
2022/10/24 13:14:54;;;;;;;;;;;17.50;99.90;;;;;;6310125;22;20260;-73
2022/10/24 13:17:19;;;;;;;;;;;17.60;99.90;;;;;;6309917;22;19915;-72
2022/10/24 13:19:45;;;;;;;;;;;17.50;99.90;;;;;;6309551;22;19937;-71
2022/10/24 13:22:28;;;;;;;;;;;17.50;99.90;;;;;;6309828;22;20296;-71
2022/10/24 13:24:58;;;;;;;;;;;17.50;99.90;;;;;;6308048;22;19985;-72
2022/10/24 13:27:26;;;;;;;;;;;17.40;99.90;;;;;;6307751;22;20006;-74
2022/10/24 13:29:52;;;;;;;;;;;17.20;99.90;;;;;;6305709;22;19994;-62
2022/10/24 13:32:17;;;;;;;;;;;17.00;99.90;;;;;;6309376;22;19955;-62
2022/10/24 13:34:53;;;;;;;;;;;16.60;99.90;;;;;;6308203;22;19922;-63
2022/10/24 13:37:42;;;;;;;;;;;16.40;99.90;;;;;;6309772;22;19998;-63
2022/10/24 13:40:19;;;;;;;;;;;16.20;99.90;;;;;;6309395;22;19915;-62
2022/10/24 13:42:51;;;;;;;;;;;16.10;99.90;;;;;;6307822;22;19972;-63
2022/10/24 13:45:23;;;;;;;;;;;16.00;99.90;;;;;;6307573;22;20295;-63
2022/10/24 13:47:53;;;;;;;;;;;15.90;99.90;;;;;;6309593;22;19994;-63
2022/10/24 13:50:26;;;;;;;;;;;15.80;99.90;;;;;;6309697;22;19914;-63
2022/10/24 13:52:58;;;;;;;;;;;15.70;99.90;;;;;;6308052;22;19965;-63
2022/10/24 13:55:30;;;;;;;;;;;15.80;99.90;;;;;;6308279;22;19915;-63
2022/10/24 13:57:59;;;;;;;;;;;15.70;99.90;;;;;;6309010;22;19922;-63
2022/10/24 14:00:30;;;;;;;;;;;15.70;99.90;;;;;;6306638;22;20418;-63
2022/10/24 14:02:58;;;;;;;;;;;15.70;99.90;;;;;;6308532;22;20331;-63
2022/10/24 14:05:35;;;;;;;;;;;15.80;99.90;;;;;;6308917;22;19915;-63
2022/10/24 14:08:18;;;;;;;;;;;15.80;99.90;;;;;;6307556;22;19914;-63
2022/10/24 14:10:44;;;;;;;;;;;15.80;99.90;;;;;;6309244;22;19915;-70
2022/10/24 14:13:13;;;;;;;;;;;15.90;99.90;;;;;;6337934;22;19942;-71
2022/10/24 14:15:45;;;;;;;;;;;16.00;99.90;;;;;;6338270;22;19965;-71
2022/10/24 14:18:13;;;;;;;;;;;16.10;99.90;;;;;;6312613;22;19921;-71
2022/10/24 14:20:41;;;;;;;;;;;16.10;99.90;;;;;;6339107;22;19920;-71
2022/10/24 14:23:22;;;;;;;;;;;16.10;99.90;;;;;;6310620;22;19918;-72
2022/10/24 14:25:52;;;;;;;;;;;16.00;99.90;;;;;;6311120;22;19915;-73
2022/10/24 14:28:23;;;;;;;;;;;15.90;99.90;;;;;;6339095;22;20054;-68
2022/10/24 14:30:53;;;;;;;;;;;15.90;99.90;;;;;;6339219;22;20278;-70